createdAt,value
2019-03-11T00:01:14.945Z,21.82
2019-03-11T00:03:41.367Z,24.00
2019-03-11T00:06:27.516Z,23.57
2019-03-11T00:08:54.070Z,23.98
2019-03-11T00:11:20.388Z,24.55
2019-03-11T00:13:48.083Z,23.80
2019-03-11T00:16:14.594Z,24.65
2019-03-11T00:18:41.028Z,24.10
2019-03-11T00:21:07.386Z,25.50
2019-03-11T00:23:33.799Z,24.92
2019-03-11T00:26:01.317Z,24.82
2019-03-11T00:28:27.640Z,24.07
2019-03-11T00:31:13.826Z,25.12
2019-03-11T00:33:40.402Z,23.75
2019-03-11T00:36:06.827Z,24.95
2019-03-11T00:38:33.415Z,25.35
2019-03-11T00:40:59.767Z,25.90
2019-03-11T00:43:26.213Z,24.45
2019-03-11T00:45:52.576Z,26.05
2019-03-11T00:48:18.882Z,24.60
2019-03-11T00:50:45.204Z,26.37
2019-03-11T00:53:11.517Z,25.90
2019-03-11T00:55:37.849Z,24.25
2019-03-11T00:58:04.220Z,26.00
2019-03-11T01:00:36.152Z,26.12
2019-03-11T01:03:02.669Z,26.73
2019-03-11T01:05:29.213Z,25.57
2019-03-11T01:07:56.732Z,24.75
2019-03-11T01:10:23.147Z,25.20
2019-03-11T01:12:49.575Z,25.65
2019-03-11T01:15:16.030Z,25.52
2019-03-11T01:17:42.555Z,25.08
2019-03-11T01:20:28.727Z,26.60
2019-03-11T01:22:55.162Z,26.35
2019-03-11T01:25:21.494Z,25.15
2019-03-11T01:27:48.028Z,24.23
2019-03-11T01:30:15.833Z,24.27
2019-03-11T01:32:55.310Z,23.87
2019-03-11T01:35:21.768Z,23.47
2019-03-11T01:38:01.364Z,25.37
2019-03-11T01:40:27.828Z,23.95
2019-03-11T01:42:54.283Z,24.55
2019-03-11T01:45:20.837Z,24.55
2019-03-11T01:47:47.221Z,24.75
2019-03-11T01:50:14.176Z,24.75
2019-03-11T01:52:40.517Z,24.50
2019-03-11T01:55:09.078Z,25.95
2019-03-11T01:57:35.441Z,24.95
2019-03-11T02:00:11.232Z,23.85
2019-03-11T02:02:37.635Z,24.67
2019-03-11T02:05:04.811Z,24.00
2019-03-11T02:07:31.335Z,23.85
2019-03-11T02:09:57.681Z,25.37
2019-03-11T02:12:24.119Z,22.82
2019-03-11T02:14:50.564Z,24.95
2019-03-11T02:17:16.921Z,22.50
2019-03-11T02:20:04.548Z,24.55
2019-03-11T02:22:31.394Z,24.47
2019-03-11T02:24:57.845Z,24.05
2019-03-11T02:27:24.186Z,22.80
2019-03-11T02:29:50.507Z,24.10
2019-03-11T02:32:16.937Z,24.40
2019-03-11T02:34:43.332Z,24.10
2019-03-11T02:37:09.894Z,25.55
2019-03-11T02:39:36.303Z,24.25
2019-03-11T02:42:02.829Z,23.85
2019-03-11T02:44:29.179Z,23.57
2019-03-11T02:46:55.570Z,24.70
2019-03-11T02:49:21.992Z,24.77
2019-03-11T02:51:48.406Z,24.92
2019-03-11T02:54:14.959Z,23.80
2019-03-11T02:56:41.398Z,24.57
2019-03-11T02:59:07.842Z,24.50
2019-03-11T03:01:36.282Z,23.67
2019-03-11T03:04:08.565Z,25.68
2019-03-11T03:06:34.888Z,25.80
2019-03-11T03:09:01.351Z,25.88
2019-03-11T03:11:29.650Z,25.72
2019-03-11T03:13:56.097Z,26.42
2019-03-11T03:16:23.507Z,25.77
2019-03-11T03:18:50.090Z,25.52
2019-03-11T03:21:16.529Z,25.65
2019-03-11T03:23:42.935Z,25.88
2019-03-11T03:26:09.400Z,27.15
2019-03-11T03:28:35.788Z,27.05
2019-03-11T03:31:02.326Z,26.35
2019-03-11T03:33:28.646Z,26.35
2019-03-11T03:35:55.109Z,27.48
2019-03-11T03:38:30.267Z,27.60
2019-03-11T03:40:49.698Z,28.20
2019-03-11T03:43:16.113Z,30.15
2019-03-11T03:46:13.199Z,29.77
2019-03-11T03:48:30.822Z,30.00
2019-03-11T03:50:57.676Z,29.95
2019-03-11T03:53:24.059Z,30.55
2019-03-11T03:55:50.379Z,31.48
2019-03-11T03:58:16.690Z,30.20
2019-03-11T04:00:43.157Z,30.48
2019-03-11T04:03:09.602Z,29.98
2019-03-11T04:05:36.012Z,29.25
2019-03-11T04:08:02.449Z,31.37
2019-03-11T04:10:32.225Z,29.72
2019-03-11T04:12:58.337Z,34.35
2019-03-11T04:15:24.800Z,33.02
2019-03-11T04:17:51.309Z,30.02
2019-03-11T04:20:22.695Z,30.40
2019-03-11T04:22:49.231Z,30.97
2019-03-11T04:25:15.695Z,28.83
2019-03-11T04:27:42.266Z,29.05
2019-03-11T04:30:27.132Z,27.50
2019-03-11T04:32:53.684Z,27.75
2019-03-11T04:35:20.098Z,28.12
2019-03-11T04:37:46.622Z,28.05
2019-03-11T04:40:14.179Z,29.25
2019-03-11T04:42:40.580Z,27.95
2019-03-11T04:45:09.145Z,29.30
2019-03-11T04:47:35.551Z,27.75
2019-03-11T04:50:04.573Z,28.57
2019-03-11T04:52:30.997Z,26.25
2019-03-11T04:54:57.342Z,26.02
2019-03-11T04:57:36.992Z,26.87
2019-03-11T05:00:07.349Z,26.82
2019-03-11T05:02:33.797Z,25.27
2019-03-11T05:05:00.168Z,25.65
2019-03-11T05:07:27.065Z,26.95
2019-03-11T05:09:53.519Z,25.72
2019-03-11T05:12:19.904Z,26.65
2019-03-11T05:14:46.222Z,24.77
2019-03-11T05:17:12.773Z,25.55
2019-03-11T05:19:39.257Z,25.10
2019-03-11T05:22:05.911Z,26.10
2019-03-11T05:24:32.274Z,24.47
2019-03-11T05:26:58.630Z,25.65
2019-03-11T05:29:25.159Z,24.05
2019-03-11T05:32:02.296Z,22.75
2019-03-11T05:34:30.215Z,23.67
2019-03-11T05:36:56.595Z,22.67
2019-03-11T05:39:25.232Z,22.80
2019-03-11T05:41:52.842Z,25.17
2019-03-11T05:44:20.475Z,27.73
2019-03-11T05:46:47.045Z,25.43
2019-03-11T05:49:13.614Z,25.70
2019-03-11T05:51:39.982Z,26.85
2019-03-11T05:54:06.392Z,26.80
2019-03-11T05:56:32.830Z,26.15
2019-03-11T05:58:59.242Z,26.65
2019-03-11T06:01:25.883Z,25.52
2019-03-11T06:03:52.234Z,25.27
2019-03-11T06:06:18.530Z,25.37
2019-03-11T06:08:44.968Z,26.15
2019-03-11T06:11:31.377Z,25.68
2019-03-11T06:13:57.854Z,25.43
2019-03-11T06:16:24.328Z,26.82
2019-03-11T06:18:51.334Z,27.87
2019-03-11T06:21:33.003Z,30.70
2019-03-11T06:23:59.384Z,30.10
2019-03-11T06:26:25.851Z,29.50
2019-03-11T06:28:52.286Z,28.60
2019-03-11T06:31:18.602Z,28.65
2019-03-11T06:33:45.070Z,28.62
2019-03-11T06:36:11.365Z,28.32
2019-03-11T06:38:37.913Z,28.17
2019-03-11T06:41:24.082Z,31.42
2019-03-11T06:43:50.557Z,31.40
2019-03-11T06:46:17.032Z,29.85
2019-03-11T06:48:43.322Z,28.98
2019-03-11T06:51:09.742Z,30.43
2019-03-11T06:53:37.296Z,29.42
2019-03-11T06:56:03.811Z,28.05
2019-03-11T06:58:41.211Z,29.87
2019-03-11T07:01:07.542Z,29.10
2019-03-11T07:03:33.998Z,27.13
2019-03-11T07:06:00.396Z,25.30
2019-03-11T07:08:26.966Z,24.67
2019-03-11T07:10:53.337Z,23.52
2019-03-11T07:13:25.181Z,23.62
2019-03-11T07:15:51.628Z,24.57
2019-03-11T07:18:18.057Z,24.23
2019-03-11T07:20:44.493Z,26.05
2019-03-11T07:23:10.948Z,26.33
2019-03-11T07:25:37.502Z,27.58
2019-03-11T07:28:03.956Z,30.43
2019-03-11T07:30:30.471Z,30.17
2019-03-11T07:32:56.921Z,31.85
2019-03-11T07:35:23.358Z,31.42
2019-03-11T07:37:49.678Z,32.10
2019-03-11T07:40:30.411Z,32.00
2019-03-11T07:42:57.153Z,33.83
2019-03-11T07:45:34.445Z,33.98
2019-03-11T07:48:00.925Z,36.10
2019-03-11T07:50:27.456Z,36.17
2019-03-11T07:52:54.995Z,37.25
2019-03-11T07:55:21.406Z,37.25
2019-03-11T07:57:47.765Z,38.08
2019-03-11T08:00:18.285Z,37.45
2019-03-11T08:02:44.610Z,39.27
2019-03-11T08:05:10.943Z,39.88
2019-03-11T08:07:37.371Z,40.03
2019-03-11T08:10:07.298Z,38.35
2019-03-11T08:12:33.816Z,46.40
2019-03-11T08:15:00.353Z,45.70
2019-03-11T08:17:26.846Z,42.78
2019-03-11T08:19:55.339Z,40.15
2019-03-11T08:22:21.862Z,39.18
2019-03-11T08:24:48.157Z,40.23
2019-03-11T08:27:14.592Z,39.95
2019-03-11T08:29:40.937Z,40.35
2019-03-11T08:32:07.349Z,37.98
2019-03-11T08:34:33.678Z,42.62
2019-03-11T08:36:59.994Z,40.90
2019-03-11T08:39:26.316Z,40.48
2019-03-11T08:41:52.767Z,41.35
2019-03-11T08:44:19.263Z,41.70
2019-03-11T08:46:45.687Z,42.53
2019-03-11T08:49:12.150Z,42.80
2019-03-11T08:51:38.585Z,42.67
2019-03-11T08:54:05.037Z,43.28
2019-03-11T08:56:31.491Z,44.13
2019-03-11T08:58:57.868Z,44.55
2019-03-11T09:01:24.255Z,43.25
2019-03-11T09:03:50.766Z,43.85
2019-03-11T09:06:18.372Z,44.15
2019-03-11T09:08:44.810Z,41.42
2019-03-11T09:11:11.246Z,44.40
2019-03-11T09:13:37.734Z,42.95
2019-03-11T09:16:24.033Z,44.70
2019-03-11T09:18:50.400Z,42.60
2019-03-11T09:21:16.850Z,42.93
2019-03-11T09:23:43.268Z,42.20
2019-03-11T09:26:22.547Z,41.42
2019-03-11T09:28:49.131Z,41.08
2019-03-11T09:31:15.527Z,43.30
2019-03-11T09:33:41.895Z,42.25
2019-03-11T09:36:08.200Z,42.30
2019-03-11T09:38:34.772Z,40.88
2019-03-11T09:41:01.154Z,41.88
2019-03-11T09:43:27.466Z,41.83
2019-03-11T09:45:53.775Z,43.00
2019-03-11T09:48:20.086Z,43.10
2019-03-11T09:50:46.412Z,41.65
2019-03-11T09:53:12.853Z,42.00
2019-03-11T09:55:39.260Z,41.00
2019-03-11T09:58:05.734Z,42.58
2019-03-11T10:00:45.483Z,44.27
2019-03-11T10:03:11.819Z,41.92
2019-03-11T10:05:38.166Z,43.55
2019-03-11T10:08:04.667Z,42.83
2019-03-11T10:10:31.116Z,39.15
2019-03-11T10:12:57.625Z,40.67
2019-03-11T10:15:24.189Z,42.93
2019-03-11T10:17:50.592Z,43.02
2019-03-11T10:20:18.114Z,42.55
2019-03-11T10:22:44.642Z,41.13
2019-03-11T10:25:12.154Z,41.90
2019-03-11T10:27:38.596Z,42.08
2019-03-11T10:30:18.151Z,40.80
2019-03-11T10:32:44.897Z,38.45
2019-03-11T10:35:30.787Z,36.88
2019-03-11T10:37:53.098Z,36.98
2019-03-11T10:40:23.580Z,35.50
2019-03-11T10:42:49.921Z,37.48
2019-03-11T10:45:16.450Z,37.20
2019-03-11T10:48:02.696Z,39.42
2019-03-11T10:50:29.135Z,34.53
2019-03-11T10:52:55.526Z,35.05
2019-03-11T10:55:24.479Z,35.43
2019-03-11T10:57:50.867Z,32.48
2019-03-11T11:00:28.607Z,33.00
2019-03-11T11:02:55.025Z,27.75
2019-03-11T11:05:21.431Z,27.13
2019-03-11T11:07:58.739Z,31.02
2019-03-11T11:10:25.310Z,30.72
2019-03-11T11:12:51.842Z,31.10
2019-03-11T11:15:29.473Z,31.45
2019-03-11T11:17:55.858Z,31.02
2019-03-11T11:20:22.402Z,27.17
2019-03-11T11:22:49.206Z,27.87
2019-03-11T11:25:18.959Z,27.60
2019-03-11T11:27:45.287Z,23.90
2019-03-11T11:30:16.663Z,23.38
2019-03-11T11:32:43.121Z,24.30
2019-03-11T11:35:09.539Z,23.65
2019-03-11T11:37:35.951Z,24.35
2019-03-11T11:40:17.190Z,23.60
2019-03-11T11:42:43.590Z,19.57
2019-03-11T11:45:14.990Z,20.37
2019-03-11T11:47:41.532Z,19.42
2019-03-11T11:50:13.187Z,18.98
2019-03-11T11:52:39.613Z,20.80
2019-03-11T11:55:08.421Z,20.35
2019-03-11T11:57:34.925Z,18.15
2019-03-11T12:00:14.658Z,15.72
2019-03-11T12:02:41.599Z,15.10
2019-03-11T12:05:10.819Z,13.48
2019-03-11T12:07:38.362Z,11.65
2019-03-11T12:10:10.942Z,9.83
2019-03-11T12:12:37.458Z,9.53
2019-03-11T12:15:06.509Z,6.08
2019-03-11T12:17:32.911Z,5.03
2019-03-11T12:19:59.245Z,5.50
2019-03-11T12:22:25.762Z,5.17
2019-03-11T12:24:52.077Z,4.90
2019-03-11T12:27:18.477Z,5.47
2019-03-11T12:29:44.806Z,5.08
2019-03-11T12:32:11.344Z,5.15
2019-03-11T12:34:37.661Z,4.78
2019-03-11T12:37:05.277Z,3.95
2019-03-11T12:39:31.828Z,3.35
2019-03-11T12:42:03.786Z,4.30
2019-03-11T12:44:31.115Z,3.33
2019-03-11T12:47:02.474Z,3.00
2019-03-11T12:49:28.930Z,3.08
2019-03-11T12:51:55.337Z,2.92
2019-03-11T12:54:22.720Z,2.70
2019-03-11T12:57:09.710Z,2.60
2019-03-11T12:59:40.541Z,3.12
2019-03-11T13:02:04.588Z,3.20
2019-03-11T13:04:31.113Z,2.98
2019-03-11T13:06:57.437Z,3.37
2019-03-11T13:09:23.966Z,1.35
2019-03-11T13:11:50.420Z,0.68
2019-03-11T13:14:16.842Z,1.25
2019-03-11T13:16:43.189Z,0.93
2019-03-11T13:19:13.397Z,0.70
2019-03-11T13:21:38.065Z,0.95
2019-03-11T13:24:24.335Z,0.85
2019-03-11T13:26:50.695Z,0.72
2019-03-11T13:29:17.290Z,0.75
2019-03-11T13:31:43.773Z,0.55
2019-03-11T13:34:11.518Z,0.80
2019-03-11T13:36:37.937Z,0.45
2019-03-11T13:39:04.303Z,0.50
2019-03-11T13:41:45.947Z,1.22
2019-03-11T13:44:12.491Z,0.50
2019-03-11T13:46:38.848Z,0.93
2019-03-11T13:49:05.150Z,0.75
2019-03-11T13:51:31.673Z,0.70
2019-03-11T13:54:11.075Z,0.78
2019-03-11T13:56:37.427Z,0.60
2019-03-11T13:59:05.940Z,0.40
2019-03-11T14:01:33.742Z,0.60
2019-03-11T14:04:05.184Z,0.50
2019-03-11T14:06:32.565Z,0.50
2019-03-11T14:08:59.491Z,0.40
2019-03-11T14:11:26.116Z,0.40
2019-03-11T14:13:52.974Z,0.45
2019-03-11T14:16:19.544Z,0.40
2019-03-11T14:18:46.019Z,0.40
2019-03-11T14:21:12.326Z,0.40
2019-03-11T14:23:38.760Z,0.50
2019-03-11T14:26:05.075Z,0.30
2019-03-11T14:28:31.687Z,0.40
2019-03-11T14:30:58.121Z,0.50
2019-03-11T14:33:24.629Z,0.50
2019-03-11T14:35:52.225Z,0.50
2019-03-11T14:38:19.254Z,0.50
2019-03-11T14:40:45.855Z,0.70
2019-03-11T14:43:12.308Z,0.33
2019-03-11T14:45:38.716Z,0.30
2019-03-11T14:48:05.438Z,0.30
2019-03-11T14:50:32.099Z,0.40
2019-03-11T14:52:58.497Z,0.50
2019-03-11T14:55:24.970Z,0.47
2019-03-11T14:57:51.509Z,0.45
2019-03-11T15:00:19.037Z,0.35
2019-03-11T15:02:45.711Z,0.57
2019-03-11T15:05:12.332Z,0.70
2019-03-11T15:07:39.177Z,0.30
2019-03-11T15:10:08.516Z,0.40
2019-03-11T15:12:34.970Z,0.40
2019-03-11T15:15:04.840Z,0.40
2019-03-11T15:17:32.393Z,0.40
2019-03-11T15:19:59.168Z,0.40
2019-03-11T15:22:25.608Z,0.50
2019-03-11T15:24:51.913Z,0.50
2019-03-11T15:27:18.259Z,0.30
2019-03-11T15:29:57.487Z,0.40
2019-03-11T15:32:24.665Z,0.50
2019-03-11T15:34:51.329Z,0.47
2019-03-11T15:37:17.749Z,0.40
2019-03-11T15:39:44.070Z,0.53
2019-03-11T15:42:10.491Z,0.60
2019-03-11T15:44:36.790Z,0.70
2019-03-11T15:47:03.078Z,0.57
2019-03-11T15:49:29.549Z,0.60
2019-03-11T15:51:55.966Z,0.20
2019-03-11T15:54:22.322Z,0.30
2019-03-11T15:56:48.643Z,0.50
2019-03-11T15:59:15.001Z,0.62
2019-03-11T16:01:41.568Z,0.47
2019-03-11T16:04:09.222Z,0.60
2019-03-11T16:06:35.760Z,1.02
2019-03-11T16:09:02.915Z,0.20
2019-03-11T16:11:33.061Z,0.72
2019-03-11T16:13:59.538Z,1.30
2019-03-11T16:16:25.853Z,1.15
2019-03-11T16:18:52.193Z,2.25
2019-03-11T16:21:18.503Z,1.65
2019-03-11T16:23:45.908Z,0.95
2019-03-11T16:26:12.377Z,0.60
2019-03-11T16:28:47.696Z,0.40
2019-03-11T16:31:27.260Z,0.40
2019-03-11T16:34:06.791Z,0.42
2019-03-11T16:36:37.309Z,0.68
2019-03-11T16:39:06.697Z,0.80
2019-03-11T16:41:40.634Z,0.30
2019-03-11T16:44:07.490Z,0.30
2019-03-11T16:46:34.122Z,0.20
2019-03-11T16:49:02.775Z,0.50
2019-03-11T16:51:29.362Z,0.20
2019-03-11T16:53:55.965Z,0.20
2019-03-11T16:56:22.460Z,0.28
2019-03-11T16:58:48.908Z,0.35
2019-03-11T17:01:15.492Z,0.30
2019-03-11T17:03:42.009Z,0.60
2019-03-11T17:06:08.480Z,0.30
2019-03-11T17:08:35.167Z,0.30
2019-03-11T17:11:03.593Z,0.30
2019-03-11T17:13:30.523Z,0.30
2019-03-11T17:15:57.177Z,0.30
2019-03-11T17:18:24.374Z,0.20
2019-03-11T17:20:51.230Z,0.30
2019-03-11T17:23:30.980Z,0.20
2019-03-11T17:25:57.849Z,0.40
2019-03-11T17:28:24.855Z,0.40
2019-03-11T17:30:51.521Z,0.40
2019-03-11T17:33:18.436Z,0.30
2019-03-11T17:35:45.540Z,0.28
2019-03-11T17:38:12.432Z,0.10
2019-03-11T17:40:59.259Z,0.35
2019-03-11T17:46:27.574Z,0.30
2019-03-11T17:48:54.585Z,0.37
2019-03-11T17:51:22.991Z,0.50
2019-03-11T17:53:50.021Z,0.37
2019-03-11T17:56:16.799Z,0.20
2019-03-11T17:58:43.584Z,0.70
2019-03-11T18:01:10.397Z,0.50
2019-03-11T18:03:37.439Z,0.90
2019-03-11T18:06:11.611Z,1.55
2019-03-11T18:08:34.251Z,1.00
2019-03-11T18:11:01.938Z,0.10
2019-03-11T18:13:29.789Z,0.30
2019-03-11T18:15:57.535Z,0.40
2019-03-11T18:18:32.970Z,0.30
2019-03-11T18:20:53.946Z,0.40
2019-03-11T18:23:22.032Z,0.40
2019-03-11T18:25:48.972Z,0.60
2019-03-11T18:28:15.952Z,0.35
2019-03-11T18:30:51.856Z,0.28
2019-03-11T18:33:19.501Z,0.20
2019-03-11T18:35:48.894Z,0.40
2019-03-11T18:38:16.912Z,0.20
2019-03-11T18:40:44.529Z,0.88
2019-03-11T18:43:20.782Z,0.50
2019-03-11T18:45:41.632Z,0.60
2019-03-11T18:48:09.711Z,1.20
2019-03-11T18:50:36.684Z,2.27
2019-03-11T18:53:03.772Z,0.50
2019-03-11T18:55:31.636Z,0.60
2019-03-11T18:57:58.525Z,0.75
2019-03-11T19:00:25.432Z,0.40
2019-03-11T19:02:52.056Z,0.82
2019-03-11T19:05:21.346Z,0.28
2019-03-11T19:07:47.825Z,0.30
2019-03-11T19:10:15.798Z,0.28
2019-03-11T19:12:42.479Z,0.15
2019-03-11T19:15:30.718Z,0.40
2019-03-11T19:17:57.365Z,0.80
2019-03-11T19:20:24.577Z,0.40
2019-03-11T19:22:51.318Z,0.70
2019-03-11T19:25:41.582Z,1.12
2019-03-11T19:28:08.356Z,1.50
2019-03-11T19:30:34.869Z,0.80
2019-03-11T19:33:01.365Z,0.33
2019-03-11T19:35:27.855Z,0.30
2019-03-11T19:37:54.721Z,0.72
2019-03-11T19:40:23.131Z,2.00
2019-03-11T19:42:49.611Z,1.10
2019-03-11T19:45:28.903Z,0.80
2019-03-11T19:48:06.336Z,1.02
2019-03-11T19:50:33.102Z,1.40
2019-03-11T19:52:59.765Z,1.12
2019-03-11T19:55:26.647Z,0.82
2019-03-11T19:57:53.143Z,0.78
2019-03-11T20:00:22.297Z,0.90
2019-03-11T20:02:49.495Z,1.00
2019-03-11T20:05:24.502Z,1.70
2019-03-11T20:07:51.275Z,1.10
2019-03-11T20:10:17.925Z,0.80
2019-03-11T20:12:44.592Z,1.20
2019-03-11T20:15:13.562Z,1.30
2019-03-11T20:17:40.444Z,1.60
2019-03-11T20:20:10.339Z,4.03
2019-03-11T20:22:36.868Z,0.90
2019-03-11T20:25:07.151Z,3.65
2019-03-11T20:27:33.680Z,0.90
2019-03-11T20:30:00.474Z,2.40
2019-03-11T20:32:27.077Z,0.70
2019-03-11T20:34:53.606Z,0.50
2019-03-11T20:37:20.243Z,0.60
2019-03-11T20:39:46.798Z,0.62
2019-03-11T20:42:15.093Z,2.42
2019-03-11T20:44:43.775Z,2.83
2019-03-11T20:47:10.349Z,7.95
2019-03-11T20:49:36.745Z,1.37
2019-03-11T20:52:03.212Z,0.60
2019-03-11T20:54:42.676Z,0.20
2019-03-11T20:57:09.255Z,2.52
2019-03-11T20:59:35.767Z,0.70
2019-03-11T21:02:02.273Z,0.37
2019-03-11T21:04:29.846Z,0.50
2019-03-11T21:06:56.433Z,0.40
2019-03-11T21:09:43.755Z,0.20
2019-03-11T21:12:10.243Z,0.25
2019-03-11T21:14:36.860Z,0.20
2019-03-11T21:17:03.356Z,0.20
2019-03-11T21:19:29.886Z,0.40
2019-03-11T21:21:56.399Z,0.25
2019-03-11T21:24:22.849Z,0.20
2019-03-11T21:26:50.028Z,0.30
2019-03-11T21:29:16.404Z,2.15
2019-03-11T21:31:42.845Z,0.50
2019-03-11T21:34:10.244Z,0.50
2019-03-11T21:36:36.843Z,0.53
2019-03-11T21:39:04.069Z,0.55
2019-03-11T21:41:32.519Z,0.30
2019-03-11T21:43:59.196Z,0.40
2019-03-11T21:46:28.030Z,0.70
2019-03-11T21:48:54.749Z,0.30
2019-03-11T21:51:21.530Z,0.10
2019-03-11T21:53:48.183Z,0.40
2019-03-11T21:56:14.723Z,0.60
2019-03-11T21:58:41.557Z,1.00
2019-03-11T22:01:08.267Z,1.45
2019-03-11T22:03:35.216Z,1.10
2019-03-11T22:06:02.728Z,0.78
2019-03-11T22:08:29.338Z,4.62
2019-03-11T22:10:56.024Z,4.78
2019-03-11T22:13:22.529Z,3.00
2019-03-11T22:16:08.799Z,1.62
2019-03-11T22:18:35.380Z,1.10
2019-03-11T22:21:01.831Z,1.35
2019-03-11T22:23:48.067Z,1.32
2019-03-11T22:26:14.706Z,0.78
2019-03-11T22:28:41.481Z,4.60
2019-03-11T22:31:08.100Z,4.25
2019-03-11T22:33:35.030Z,1.27
2019-03-11T22:36:15.017Z,0.80
2019-03-11T22:38:41.375Z,0.90
2019-03-11T22:41:07.784Z,0.70
2019-03-11T22:43:36.075Z,0.70
2019-03-11T22:46:02.484Z,0.60
2019-03-11T22:48:29.036Z,1.12
2019-03-11T22:51:08.807Z,0.90
2019-03-11T22:53:35.370Z,1.07
2019-03-11T22:56:02.819Z,0.80
2019-03-11T22:58:42.056Z,1.12
2019-03-11T23:01:08.504Z,0.95
2019-03-11T23:03:35.239Z,0.90
2019-03-11T23:06:02.853Z,1.12
2019-03-11T23:08:42.291Z,0.30
2019-03-11T23:11:08.632Z,0.42
2019-03-11T23:13:35.195Z,0.33
2019-03-11T23:16:01.631Z,0.40
2019-03-11T23:18:27.963Z,0.65
2019-03-11T23:20:54.397Z,0.33
2019-03-11T23:23:20.699Z,0.42
2019-03-11T23:25:47.332Z,0.42
2019-03-11T23:28:13.862Z,0.40
2019-03-11T23:30:40.672Z,0.53
2019-03-11T23:33:26.976Z,0.40
2019-03-11T23:35:53.442Z,0.50
2019-03-11T23:38:19.777Z,0.45
2019-03-11T23:40:46.122Z,0.37
2019-03-11T23:43:12.481Z,0.30
2019-03-11T23:45:38.890Z,0.40
2019-03-11T23:48:05.407Z,0.37
2019-03-11T23:50:31.962Z,0.30
2019-03-11T23:52:58.530Z,0.53
2019-03-11T23:55:24.952Z,0.40
2019-03-11T23:57:51.416Z,0.53
